KLAA/LAA METAR and TAF weather

Enter ICAO airport designator
Station Type Date Time Source
KLAA METAR 2021/09/25 02:53 UTC NOAA

KLAA 250253Z AUTO 12007KT 10SM CLR 17/04 A3017 RMK AO2 SLP183 T01720039 53016


Station Type Date Time Source
KLAA Decoded METAR 2021/09/25 02:53 UTC NOAA

LAMAR MUNICIPAL AIRPORT, CO, United States (KLAA) 38-04N 102-41W 1119M
Sep 24, 2021 - 10:53 PM EDT / 2021.09.25 0253 UTC
Wind: from the ESE (120 degrees) at 8 MPH (7 KT):0
Visibility: 10 mile(s):0
Sky conditions: clear
Temperature: 63.0 F (17.2 C)
Dew Point: 39.0 F (3.9 C)
Relative Humidity: 41%
Pressure (altimeter): 30.17 in. Hg (1021 hPa)
Pressure tendency: 0.05 inches (1.6 hPa) higher than three hours ago
ob: KLAA 250253Z AUTO 12007KT 10SM CLR 17/04 A3017 RMK AO2 SLP183 T01720039 53016
cycle: 3

Station Type Date Time Source
KLAA TAF UTC NOAA

Error!

Example: see airport list